createdAt,value
2018-08-07T00:02:14.197Z,30.34
2018-08-07T00:04:44.287Z,30.31
2018-08-07T00:07:13.499Z,30.28
2018-08-07T00:09:42.064Z,30.22
2018-08-07T00:12:11.614Z,30.09
2018-08-07T00:14:40.159Z,30.18
2018-08-07T00:17:08.988Z,30.18
2018-08-07T00:19:38.082Z,30.22
2018-08-07T00:22:07.152Z,30.20
2018-08-07T00:25:07.771Z,30.16
2018-08-07T00:27:36.690Z,30.14
2018-08-07T00:30:12.182Z,30.09
2018-08-07T00:35:38.680Z,29.99
2018-08-07T00:38:09.383Z,29.96
2018-08-07T00:43:29.300Z,29.92
2018-08-07T00:45:59.252Z,29.85
2018-08-07T00:48:27.863Z,29.80
2018-08-07T00:50:56.361Z,29.80
2018-08-07T00:53:26.994Z,29.75
2018-08-07T00:56:04.330Z,29.70
2018-08-07T00:58:38.354Z,29.69
2018-08-07T01:01:09.651Z,29.66
2018-08-07T01:07:03.738Z,29.54
2018-08-07T01:09:33.941Z,29.50
2018-08-07T01:12:04.681Z,29.46
2018-08-07T01:14:34.319Z,29.43
2018-08-07T01:17:03.114Z,29.42
2018-08-07T01:19:33.528Z,29.40
2018-08-07T01:22:02.777Z,29.38
2018-08-07T01:24:36.292Z,29.39
2018-08-07T01:27:09.678Z,29.33
2018-08-07T01:29:38.939Z,29.28
2018-08-07T01:32:08.076Z,29.23
2018-08-07T01:34:41.963Z,29.17
2018-08-07T01:37:10.584Z,29.14
2018-08-07T01:39:43.297Z,29.15
2018-08-07T01:45:29.496Z,29.09
2018-08-07T01:47:58.042Z,29.01
2018-08-07T01:50:26.570Z,28.93
2018-08-07T01:52:55.419Z,28.86
2018-08-07T01:55:26.305Z,28.87
2018-08-07T01:57:55.132Z,28.85
2018-08-07T02:00:24.163Z,28.81
2018-08-07T02:02:53.591Z,28.79
2018-08-07T02:05:22.142Z,28.76
2018-08-07T02:07:51.494Z,28.72
2018-08-07T02:10:20.475Z,28.71
2018-08-07T02:12:52.050Z,28.72
2018-08-07T02:15:43.394Z,28.72
2018-08-07T02:18:12.466Z,28.71
2018-08-07T02:23:21.554Z,28.71
2018-08-07T02:25:50.131Z,28.63
2018-08-07T02:28:24.042Z,28.23
2018-08-07T02:30:53.320Z,27.92
2018-08-07T02:33:21.891Z,27.86
2018-08-07T02:35:51.757Z,27.88
2018-08-07T02:38:21.530Z,27.70
2018-08-07T02:40:50.076Z,27.70
2018-08-07T02:43:19.518Z,27.67
2018-08-07T02:45:48.052Z,27.80
2018-08-07T02:48:17.025Z,27.80
2018-08-07T02:50:45.617Z,27.87
2018-08-07T02:53:14.526Z,27.87
2018-08-07T02:55:43.191Z,27.78
2018-08-07T02:58:11.723Z,27.67
2018-08-07T03:00:43.224Z,27.75
2018-08-07T03:03:13.233Z,27.76
2018-08-07T03:05:41.864Z,27.69
2018-08-07T03:08:10.543Z,27.64
2018-08-07T03:10:39.187Z,27.69
2018-08-07T03:13:13.875Z,27.59
2018-08-07T03:15:44.751Z,27.57
2018-08-07T03:18:13.399Z,27.64
2018-08-07T03:20:53.332Z,27.56
2018-08-07T03:23:21.861Z,27.41
2018-08-07T03:25:50.423Z,27.41
2018-08-07T03:28:22.531Z,27.46
2018-08-07T03:30:51.145Z,27.51
2018-08-07T03:33:20.320Z,27.50
2018-08-07T03:35:48.991Z,27.47
2018-08-07T03:38:21.214Z,27.44
2018-08-07T03:40:50.811Z,27.25
2018-08-07T03:43:19.714Z,27.28
2018-08-07T03:45:48.375Z,27.25
2018-08-07T03:48:16.920Z,27.26
2018-08-07T03:50:45.815Z,27.01
2018-08-07T03:53:15.040Z,26.91
2018-08-07T03:55:44.030Z,26.73
2018-08-07T03:58:13.170Z,26.62
2018-08-07T04:00:47.632Z,26.59
2018-08-07T04:03:16.827Z,26.54
2018-08-07T04:05:50.763Z,26.51
2018-08-07T04:08:19.374Z,26.52
2018-08-07T04:10:47.906Z,26.52
2018-08-07T04:13:16.808Z,26.60
2018-08-07T04:15:47.612Z,26.61
2018-08-07T04:18:16.188Z,26.48
2018-08-07T04:20:45.681Z,26.38
2018-08-07T04:23:14.257Z,26.37
2018-08-07T04:25:55.301Z,26.44
2018-08-07T04:31:35.171Z,26.58
2018-08-07T04:34:09.715Z,26.72
2018-08-07T04:36:38.230Z,26.67
2018-08-07T04:39:11.028Z,26.73
2018-08-07T04:41:39.788Z,26.70
2018-08-07T04:44:08.726Z,26.62
2018-08-07T04:46:37.328Z,26.62
2018-08-07T04:49:06.520Z,26.40
2018-08-07T04:51:35.999Z,26.52
2018-08-07T04:54:05.883Z,26.49
2018-08-07T04:56:38.346Z,26.33
2018-08-07T04:59:08.308Z,26.36
2018-08-07T05:01:36.889Z,26.42
2018-08-07T05:04:12.870Z,26.43
2018-08-07T05:06:41.428Z,26.52
2018-08-07T05:09:24.212Z,26.53
2018-08-07T05:11:53.417Z,26.48
2018-08-07T05:14:22.317Z,26.61
2018-08-07T05:16:51.554Z,26.59
2018-08-07T05:19:20.182Z,26.68
2018-08-07T05:21:49.346Z,26.68
2018-08-07T05:24:18.007Z,26.72
2018-08-07T05:26:47.167Z,26.85
2018-08-07T05:29:17.265Z,26.98
2018-08-07T05:31:45.864Z,27.08
2018-08-07T05:34:15.398Z,27.11
2018-08-07T05:36:44.548Z,27.22
2018-08-07T05:39:13.158Z,27.35
2018-08-07T05:41:41.700Z,27.52
2018-08-07T05:44:10.299Z,27.60
2018-08-07T05:46:38.864Z,27.72
2018-08-07T05:49:07.428Z,27.82
2018-08-07T05:51:36.093Z,27.91
2018-08-07T05:54:05.711Z,28.00
2018-08-07T05:56:35.085Z,28.06
2018-08-07T05:59:04.721Z,28.13
2018-08-07T06:01:34.455Z,28.21
2018-08-07T06:04:04.502Z,28.30
2018-08-07T06:06:33.027Z,28.35
2018-08-07T06:09:02.305Z,28.42
2018-08-07T06:11:30.837Z,28.41
2018-08-07T06:14:00.044Z,28.37
2018-08-07T06:16:28.585Z,28.46
2018-08-07T06:18:58.514Z,28.40
2018-08-07T06:21:27.610Z,28.22
2018-08-07T06:23:56.782Z,27.94
2018-08-07T06:26:26.316Z,27.99
2018-08-07T06:28:55.489Z,28.27
2018-08-07T06:31:25.150Z,28.18
2018-08-07T06:33:53.755Z,27.84
2018-08-07T06:36:22.343Z,28.19
2018-08-07T06:38:50.967Z,28.38
2018-08-07T06:41:20.212Z,28.49
2018-08-07T06:43:49.350Z,28.55
2018-08-07T06:46:18.974Z,28.61
2018-08-07T06:48:48.240Z,28.66
2018-08-07T06:51:16.899Z,28.71
2018-08-07T06:53:46.552Z,28.52
2018-08-07T06:56:15.447Z,28.47
2018-08-07T06:58:44.280Z,28.53
2018-08-07T07:01:14.470Z,28.48
2018-08-07T07:03:43.100Z,28.34
2018-08-07T07:06:13.185Z,28.50
2018-08-07T07:08:41.778Z,28.76
2018-08-07T07:11:10.453Z,28.85
2018-08-07T07:13:39.098Z,28.79
2018-08-07T07:16:08.039Z,28.79
2018-08-07T07:18:36.655Z,28.92
2018-08-07T07:21:05.339Z,28.55
2018-08-07T07:23:35.913Z,28.64
2018-08-07T07:26:06.396Z,28.34
2018-08-07T07:28:35.324Z,28.15
2018-08-07T07:31:04.792Z,28.23
2018-08-07T07:33:33.632Z,28.02
2018-08-07T07:36:05.148Z,28.29
2018-08-07T07:38:34.008Z,28.21
2018-08-07T07:41:02.732Z,28.07
2018-08-07T07:43:34.999Z,28.28
2018-08-07T07:46:05.373Z,28.14
2018-08-07T07:48:34.075Z,28.26
2018-08-07T07:51:03.516Z,28.39
2018-08-07T07:53:32.818Z,28.34
2018-08-07T07:56:01.719Z,28.48
2018-08-07T07:58:31.787Z,28.66
2018-08-07T08:01:00.737Z,28.83
2018-08-07T08:03:30.335Z,29.01
2018-08-07T08:05:59.049Z,29.15
2018-08-07T08:08:28.295Z,29.21
2018-08-07T08:10:59.346Z,29.29
2018-08-07T08:13:28.009Z,29.30
2018-08-07T08:15:57.299Z,29.33
2018-08-07T08:18:26.230Z,29.41
2018-08-07T08:20:55.700Z,29.44
2018-08-07T08:23:24.275Z,29.52
2018-08-07T08:27:23.316Z,29.59
2018-08-07T08:29:52.010Z,29.61
2018-08-07T08:32:20.577Z,29.67
2018-08-07T08:34:49.488Z,29.78
2018-08-07T08:37:18.146Z,29.77
2018-08-07T08:39:46.672Z,29.69
2018-08-07T08:42:15.258Z,29.83
2018-08-07T08:44:43.925Z,29.96
2018-08-07T08:47:12.501Z,30.06
2018-08-07T08:49:41.106Z,30.12
2018-08-07T08:52:10.032Z,30.17
2018-08-07T08:54:39.064Z,30.24
2018-08-07T08:57:07.909Z,30.36
2018-08-07T08:59:37.396Z,30.18
2018-08-07T09:02:06.434Z,30.40
2018-08-07T09:04:35.358Z,30.54
2018-08-07T09:07:04.088Z,30.68
2018-08-07T09:09:32.703Z,30.73
2018-08-07T09:12:03.972Z,30.77
2018-08-07T09:14:32.584Z,30.91
2018-08-07T09:17:02.345Z,31.01
2018-08-07T09:19:31.268Z,31.14
2018-08-07T09:21:59.848Z,31.19
2018-08-07T09:24:28.452Z,31.36
2018-08-07T09:26:57.702Z,31.40
2018-08-07T09:29:27.057Z,31.49
2018-08-07T09:31:55.779Z,31.68
2018-08-07T09:34:25.506Z,31.79
2018-08-07T09:39:50.217Z,32.07
2018-08-07T09:42:20.328Z,32.15
2018-08-07T09:44:48.899Z,32.19
2018-08-07T09:47:17.506Z,32.32
2018-08-07T09:49:46.606Z,32.39
2018-08-07T09:52:15.258Z,32.54
2018-08-07T09:54:43.855Z,32.73
2018-08-07T09:57:12.790Z,32.81
2018-08-07T09:59:41.318Z,32.94
2018-08-07T10:02:15.188Z,33.04
2018-08-07T10:04:44.318Z,33.31
2018-08-07T10:07:12.879Z,33.52
2018-08-07T10:09:41.454Z,33.68
2018-08-07T10:12:10.464Z,33.93
2018-08-07T10:14:39.050Z,34.03
2018-08-07T10:17:07.662Z,34.25
2018-08-07T10:19:36.570Z,34.33
2018-08-07T10:22:06.828Z,34.48
2018-08-07T10:24:35.344Z,34.58
2018-08-07T10:27:04.225Z,34.77
2018-08-07T10:29:32.802Z,34.81
2018-08-07T10:32:01.694Z,35.08
2018-08-07T10:34:30.676Z,35.14
2018-08-07T10:36:59.222Z,35.32
2018-08-07T10:39:27.790Z,35.43
2018-08-07T10:41:56.680Z,35.74
2018-08-07T10:44:25.235Z,35.93
2018-08-07T10:46:53.820Z,35.89
2018-08-07T10:49:23.054Z,35.84
2018-08-07T10:51:51.609Z,36.21
2018-08-07T10:54:20.218Z,36.35
2018-08-07T10:56:50.124Z,36.66
2018-08-07T10:59:18.686Z,36.72
2018-08-07T11:01:47.255Z,36.96
2018-08-07T11:04:16.905Z,37.12
2018-08-07T11:06:45.584Z,36.99
2018-08-07T11:09:14.255Z,36.99
2018-08-07T11:11:44.049Z,37.09
2018-08-07T11:14:12.646Z,37.29
2018-08-07T11:16:41.333Z,37.58
2018-08-07T11:19:10.300Z,37.77
2018-08-07T11:21:38.939Z,37.65
2018-08-07T11:24:07.538Z,37.47
2018-08-07T11:26:36.425Z,37.73
2018-08-07T11:29:06.406Z,37.54
2018-08-07T11:31:34.985Z,37.66
2018-08-07T11:34:04.842Z,37.68
2018-08-07T11:36:33.489Z,37.95
2018-08-07T11:39:02.421Z,37.95
2018-08-07T11:41:31.341Z,37.90
2018-08-07T11:44:00.007Z,38.14
2018-08-07T11:46:28.616Z,38.10
2018-08-07T11:48:57.801Z,38.13
2018-08-07T11:51:26.358Z,38.46
2018-08-07T11:53:54.903Z,38.80
2018-08-07T11:56:23.557Z,39.00
2018-08-07T11:58:52.188Z,39.04
2018-08-07T12:01:21.048Z,38.95
2018-08-07T12:03:49.609Z,39.02
2018-08-07T12:06:18.345Z,39.16
2018-08-07T12:08:47.295Z,39.44
2018-08-07T12:11:15.921Z,39.31
2018-08-07T12:13:44.828Z,39.17
2018-08-07T12:16:13.473Z,39.10
2018-08-07T12:18:42.100Z,39.31
2018-08-07T12:21:11.087Z,39.51
2018-08-07T12:23:39.683Z,39.42
2018-08-07T12:26:08.272Z,39.53
2018-08-07T12:28:38.156Z,40.06
2018-08-07T12:31:06.698Z,40.31
2018-08-07T12:33:35.398Z,40.68
2018-08-07T12:36:05.794Z,40.75
2018-08-07T12:38:34.360Z,41.16
2018-08-07T12:41:03.563Z,41.27
2018-08-07T12:43:32.626Z,41.33
2018-08-07T12:46:04.224Z,41.65
2018-08-07T12:48:32.883Z,42.02
2018-08-07T12:51:02.337Z,41.53
2018-08-07T12:53:31.345Z,42.18
2018-08-07T12:55:59.926Z,42.36
2018-08-07T12:58:28.793Z,42.61
2018-08-07T13:00:57.407Z,42.71
2018-08-07T13:03:26.038Z,43.22
2018-08-07T13:05:54.969Z,42.55
2018-08-07T13:08:23.666Z,43.13
2018-08-07T13:10:52.331Z,43.51
2018-08-07T13:13:21.240Z,43.99
2018-08-07T13:15:49.806Z,43.92
2018-08-07T13:18:18.540Z,43.81
2018-08-07T13:20:47.424Z,43.86
2018-08-07T13:23:16.040Z,43.78
2018-08-07T13:25:44.575Z,44.65
2018-08-07T13:28:13.440Z,43.69
2018-08-07T13:30:42.299Z,42.76
2018-08-07T13:33:11.163Z,42.35
2018-08-07T13:35:41.033Z,41.77
2018-08-07T13:38:09.924Z,41.11
2018-08-07T13:40:38.671Z,40.93
2018-08-07T13:43:07.580Z,40.51
2018-08-07T13:45:36.208Z,41.01
2018-08-07T13:48:06.625Z,41.26
2018-08-07T13:50:35.510Z,41.51
2018-08-07T13:53:04.253Z,42.21
2018-08-07T13:55:32.832Z,43.54
2018-08-07T13:58:02.461Z,43.80
2018-08-07T14:00:31.556Z,46.10
2018-08-07T14:03:00.119Z,46.93
2018-08-07T14:05:29.457Z,47.77
2018-08-07T14:07:58.522Z,48.53
2018-08-07T14:10:28.600Z,48.90
2018-08-07T14:12:57.325Z,48.89
2018-08-07T14:15:27.549Z,49.12
2018-08-07T14:17:56.639Z,49.24
2018-08-07T14:20:25.452Z,49.11
2018-08-07T14:22:54.035Z,47.05
2018-08-07T14:25:25.238Z,46.67
2018-08-07T14:27:53.880Z,46.82
2018-08-07T14:30:23.923Z,47.83
2018-08-07T14:32:52.846Z,48.51
2018-08-07T14:35:21.707Z,47.91
2018-08-07T14:37:50.741Z,46.36
2018-08-07T14:40:22.047Z,48.80
2018-08-07T14:42:51.590Z,49.96
2018-08-07T14:45:22.517Z,49.66
2018-08-07T14:47:52.541Z,50.00
2018-08-07T14:50:25.260Z,51.38
2018-08-07T14:52:54.072Z,51.89
2018-08-07T14:55:22.858Z,51.05
2018-08-07T14:57:51.733Z,51.27
2018-08-07T15:00:22.475Z,51.14
2018-08-07T15:02:51.101Z,51.71
2018-08-07T15:05:19.825Z,51.51
2018-08-07T15:07:48.870Z,52.18
2018-08-07T15:10:20.452Z,53.05
2018-08-07T15:12:49.088Z,51.77
2018-08-07T15:15:20.461Z,52.09
2018-08-07T15:17:49.113Z,51.48
2018-08-07T15:20:20.598Z,49.85
2018-08-07T15:22:50.315Z,49.65
2018-08-07T15:25:19.978Z,48.97
2018-08-07T15:27:49.046Z,49.05
2018-08-07T15:30:22.048Z,48.62
2018-08-07T15:32:51.755Z,48.20
2018-08-07T15:35:21.935Z,46.97
2018-08-07T15:37:50.650Z,45.65
2018-08-07T15:40:19.681Z,44.95
2018-08-07T15:42:48.935Z,44.13
2018-08-07T15:45:20.413Z,42.92
2018-08-07T15:47:49.059Z,41.87
2018-08-07T15:50:18.507Z,40.27
2018-08-07T15:52:48.610Z,39.58
2018-08-07T15:55:19.049Z,39.41
2018-08-07T15:57:48.305Z,39.28
2018-08-07T16:00:26.351Z,38.74
2018-08-07T16:03:03.600Z,38.33
2018-08-07T16:05:32.492Z,38.34
2018-08-07T16:08:04.635Z,38.61
2018-08-07T16:10:33.211Z,38.55
2018-08-07T16:13:02.133Z,38.21
2018-08-07T16:15:31.047Z,37.98
2018-08-07T16:17:59.673Z,37.74
2018-08-07T16:20:28.340Z,37.18
2018-08-07T16:22:57.259Z,37.03
2018-08-07T16:25:26.041Z,37.08
2018-08-07T16:27:54.725Z,36.96
2018-08-07T16:30:26.552Z,36.71
2018-08-07T16:32:55.233Z,36.90
2018-08-07T16:35:23.968Z,36.74
2018-08-07T16:37:52.831Z,36.86
2018-08-07T16:40:23.119Z,36.59
2018-08-07T16:42:52.742Z,36.57
2018-08-07T16:45:22.589Z,36.39
2018-08-07T16:47:51.309Z,36.40
2018-08-07T16:50:24.283Z,36.17
2018-08-07T16:52:54.163Z,36.03
2018-08-07T16:55:23.968Z,35.93
2018-08-07T16:57:52.641Z,35.89
2018-08-07T17:00:21.651Z,35.80
2018-08-07T17:02:50.368Z,35.44
2018-08-07T17:05:19.136Z,35.47
2018-08-07T17:07:49.228Z,35.43
2018-08-07T17:10:22.881Z,35.40
2018-08-07T17:12:51.622Z,35.42
2018-08-07T17:15:20.548Z,35.40
2018-08-07T17:17:49.430Z,35.40
2018-08-07T17:20:20.276Z,35.38
2018-08-07T17:22:49.556Z,35.35
2018-08-07T17:25:19.398Z,35.43
2018-08-07T17:27:48.871Z,35.36
2018-08-07T17:30:19.728Z,35.50
2018-08-07T17:32:48.455Z,35.64
2018-08-07T17:35:19.741Z,35.76
2018-08-07T17:37:50.060Z,35.88
2018-08-07T17:40:20.275Z,35.84
2018-08-07T17:42:48.976Z,35.96
2018-08-07T17:45:18.414Z,36.10
2018-08-07T17:47:47.274Z,36.25
2018-08-07T17:50:18.622Z,36.21
2018-08-07T17:52:48.430Z,36.21
2018-08-07T17:55:17.299Z,36.29
2018-08-07T17:57:46.394Z,36.20
2018-08-07T18:00:20.008Z,35.89
2018-08-07T18:02:49.184Z,35.93
2018-08-07T18:05:17.809Z,35.85
2018-08-07T18:07:48.502Z,35.85
2018-08-07T18:10:21.354Z,35.63
2018-08-07T18:12:50.440Z,35.58
2018-08-07T18:15:20.532Z,35.35
2018-08-07T18:17:49.656Z,35.09
2018-08-07T18:20:21.278Z,35.08
2018-08-07T18:22:50.430Z,35.02
2018-08-07T18:25:19.099Z,34.64
2018-08-07T18:27:48.076Z,34.64
2018-08-07T18:30:19.424Z,34.59
2018-08-07T18:32:48.502Z,34.48
2018-08-07T18:35:19.289Z,34.35
2018-08-07T18:37:48.640Z,34.29
2018-08-07T18:40:18.727Z,34.03
2018-08-07T18:45:26.674Z,33.95
2018-08-07T18:47:55.360Z,33.84
2018-08-07T18:50:24.771Z,33.75
2018-08-07T18:52:53.385Z,33.70
2018-08-07T18:55:22.047Z,33.68
2018-08-07T18:57:51.937Z,33.64
2018-08-07T19:00:23.911Z,33.51
2018-08-07T19:02:53.311Z,33.50
2018-08-07T19:05:23.236Z,33.43
2018-08-07T19:07:51.883Z,33.36
2018-08-07T19:10:20.826Z,33.33
2018-08-07T19:12:49.968Z,33.27
2018-08-07T19:15:19.590Z,33.20
2018-08-07T19:17:48.748Z,33.13
2018-08-07T19:20:20.688Z,33.05
2018-08-07T19:22:49.403Z,33.03
2018-08-07T19:25:18.537Z,32.92
2018-08-07T19:27:47.296Z,32.83
2018-08-07T19:30:19.360Z,32.80
2018-08-07T19:32:48.261Z,32.76
2018-08-07T19:35:16.855Z,32.70
2018-08-07T19:37:45.471Z,32.67
2018-08-07T19:40:15.710Z,32.67
2018-08-07T19:42:45.373Z,32.48
2018-08-07T19:45:14.594Z,32.39
2018-08-07T19:47:43.771Z,32.20
2018-08-07T19:50:13.716Z,32.21
2018-08-07T19:52:42.719Z,32.13
2018-08-07T19:55:15.534Z,31.93
2018-08-07T19:57:44.106Z,31.88
2018-08-07T20:00:19.216Z,31.98
2018-08-07T20:02:48.101Z,31.97
2018-08-07T20:05:16.747Z,31.97
2018-08-07T20:07:45.740Z,31.97
2018-08-07T20:10:15.547Z,31.90
2018-08-07T20:12:44.599Z,31.86
2018-08-07T20:15:17.359Z,31.82
2018-08-07T20:17:46.642Z,31.80
2018-08-07T20:20:15.679Z,31.77
2018-08-07T20:22:44.311Z,31.67
2018-08-07T20:25:12.957Z,31.68
2018-08-07T20:27:41.938Z,31.70
2018-08-07T20:30:13.377Z,31.61
2018-08-07T20:32:42.368Z,31.55
2018-08-07T20:35:13.069Z,31.53
2018-08-07T20:37:45.383Z,31.56
2018-08-07T20:40:19.091Z,31.54
2018-08-07T20:42:59.524Z,31.48
2018-08-07T20:45:28.549Z,31.42
2018-08-07T20:47:57.113Z,31.41
2018-08-07T20:50:26.768Z,31.38
2018-08-07T20:52:56.046Z,31.30
2018-08-07T20:55:24.987Z,31.23
2018-08-07T20:57:53.581Z,31.13
2018-08-07T21:00:24.031Z,31.14
2018-08-07T21:02:52.962Z,31.09
2018-08-07T21:05:22.154Z,31.04
2018-08-07T21:07:51.317Z,31.03
2018-08-07T21:10:22.309Z,30.88
2018-08-07T21:12:51.219Z,30.88
2018-08-07T21:15:19.847Z,30.85
2018-08-07T21:17:48.450Z,30.83
2018-08-07T21:20:18.866Z,30.78
2018-08-07T21:22:47.673Z,30.81
2018-08-07T21:25:19.028Z,30.73
2018-08-07T21:27:48.823Z,30.75
2018-08-07T21:30:20.549Z,30.68
2018-08-07T21:32:49.510Z,30.66
2018-08-07T21:35:18.027Z,30.72
2018-08-07T21:37:47.008Z,30.69
2018-08-07T21:40:16.923Z,30.64
2018-08-07T21:42:45.844Z,30.57
2018-08-07T21:45:14.990Z,30.47
2018-08-07T21:47:43.828Z,30.17
2018-08-07T21:50:15.434Z,29.76
2018-08-07T21:52:44.472Z,29.57
2018-08-07T21:55:14.415Z,29.58
2018-08-07T21:57:43.015Z,29.59
2018-08-07T22:00:16.792Z,29.59
2018-08-07T22:02:45.859Z,29.63
2018-08-07T22:05:15.477Z,29.55
2018-08-07T22:07:44.100Z,29.53
2018-08-07T22:10:15.807Z,29.54
2018-08-07T22:12:45.191Z,29.46
2018-08-07T22:15:14.815Z,29.49
2018-08-07T22:17:43.515Z,29.25
2018-08-07T22:20:13.049Z,28.83
2018-08-07T22:22:41.735Z,28.79
2018-08-07T22:25:10.674Z,28.69
2018-08-07T22:27:39.736Z,28.69
2018-08-07T22:30:12.212Z,28.63
2018-08-07T22:32:40.916Z,28.36
2018-08-07T22:35:09.907Z,28.39
2018-08-07T22:37:39.023Z,28.42
2018-08-07T22:40:08.084Z,28.51
2018-08-07T22:42:37.093Z,28.48
2018-08-07T22:45:07.702Z,28.66
2018-08-07T22:47:38.975Z,28.75
2018-08-07T22:50:08.679Z,28.80
2018-08-07T22:52:37.633Z,28.85
2018-08-07T22:55:08.417Z,28.87
2018-08-07T22:57:37.128Z,28.83
2018-08-07T23:00:11.399Z,28.87
2018-08-07T23:02:40.659Z,28.77
2018-08-07T23:05:09.636Z,28.78
2018-08-07T23:07:38.261Z,28.78
2018-08-07T23:10:09.832Z,28.72
2018-08-07T23:12:38.424Z,28.74
2018-08-07T23:15:09.566Z,28.68
2018-08-07T23:17:38.459Z,28.70
2018-08-07T23:20:07.780Z,28.62
2018-08-07T23:22:36.415Z,28.64
2018-08-07T23:25:05.841Z,28.72
2018-08-07T23:27:34.477Z,28.70
2018-08-07T23:30:04.465Z,28.65
2018-08-07T23:32:34.397Z,28.48
2018-08-07T23:35:03.325Z,28.47
2018-08-07T23:37:31.937Z,28.28
2018-08-07T23:40:00.995Z,28.46
2018-08-07T23:42:29.601Z,28.41
2018-08-07T23:44:58.180Z,28.37
2018-08-07T23:47:27.149Z,28.36
2018-08-07T23:49:55.640Z,28.37
2018-08-07T23:52:39.174Z,28.43
2018-08-07T23:55:07.973Z,28.40
2018-08-07T23:57:37.103Z,28.34
